sensor_id;sensor_type;location;lat;lon;timestamp;temperature;humidity
37956;DHT22;23776;51.592;7.180;2022-10-30T00:00:27;15.60;99.90
37956;DHT22;23776;51.592;7.180;2022-10-30T00:02:53;15.60;99.90
37956;DHT22;23776;51.592;7.180;2022-10-30T00:05:19;15.60;1.00
37956;DHT22;23776;51.592;7.180;2022-10-30T00:07:46;15.80;1.00
37956;DHT22;23776;51.592;7.180;2022-10-30T00:10:12;15.50;99.90
37956;DHT22;23776;51.592;7.180;2022-10-30T00:12:38;15.50;99.90
37956;DHT22;23776;51.592;7.180;2022-10-30T00:15:03;15.40;99.90
37956;DHT22;23776;51.592;7.180;2022-10-30T00:17:29;15.40;99.90
37956;DHT22;23776;51.592;7.180;2022-10-30T00:19:55;15.40;99.90
37956;DHT22;23776;51.592;7.180;2022-10-30T00:22:21;15.30;99.90
37956;DHT22;23776;51.592;7.180;2022-10-30T00:24:46;15.30;99.90
37956;DHT22;23776;51.592;7.180;2022-10-30T00:27:12;15.20;99.90
37956;DHT22;23776;51.592;7.180;2022-10-30T00:29:37;15.30;1.00
37956;DHT22;23776;51.592;7.180;2022-10-30T00:32:03;15.30;1.00
37956;DHT22;23776;51.592;7.180;2022-10-30T00:34:29;15.20;1.00
37956;DHT22;23776;51.592;7.180;2022-10-30T00:36:54;15.10;1.00
37956;DHT22;23776;51.592;7.180;2022-10-30T00:39:20;15.10;1.00
37956;DHT22;23776;51.592;7.180;2022-10-30T00:41:45;15.20;1.00
37956;DHT22;23776;51.592;7.180;2022-10-30T00:44:31;15.20;1.00
37956;DHT22;23776;51.592;7.180;2022-10-30T00:46:58;15.60;1.00
37956;DHT22;23776;51.592;7.180;2022-10-30T00:49:30;15.20;1.00
37956;DHT22;23776;51.592;7.180;2022-10-30T00:51:57;15.10;1.00
37956;DHT22;23776;51.592;7.180;2022-10-30T00:54:23;15.10;1.00
37956;DHT22;23776;51.592;7.180;2022-10-30T00:56:49;15.20;1.00
37956;DHT22;23776;51.592;7.180;2022-10-30T00:59:25;15.20;1.00
37956;DHT22;23776;51.592;7.180;2022-10-30T01:01:52;15.20;1.00
37956;DHT22;23776;51.592;7.180;2022-10-30T01:04:19;15.10;1.00
37956;DHT22;23776;51.592;7.180;2022-10-30T01:06:46;15.60;1.00
37956;DHT22;23776;51.592;7.180;2022-10-30T01:09:14;15.10;1.00
37956;DHT22;23776;51.592;7.180;2022-10-30T01:11:40;15.10;1.00
37956;DHT22;23776;51.592;7.180;2022-10-30T01:14:07;15.10;1.00
37956;DHT22;23776;51.592;7.180;2022-10-30T01:16:46;15.10;1.00
37956;DHT22;23776;51.592;7.180;2022-10-30T01:19:27;15.00;1.00
37956;DHT22;23776;51.592;7.180;2022-10-30T01:22:16;14.90;1.00
37956;DHT22;23776;51.592;7.180;2022-10-30T01:30:32;14.80;1.00
37956;DHT22;23776;51.592;7.180;2022-10-30T01:36:07;12.80;1.00
37956;DHT22;23776;51.592;7.180;2022-10-30T01:38:38;14.80;1.00
37956;DHT22;23776;51.592;7.180;2022-10-30T01:41:06;14.80;1.00
37956;DHT22;23776;51.592;7.180;2022-10-30T01:43:32;14.70;1.00
37956;DHT22;23776;51.592;7.180;2022-10-30T01:57:28;14.60;1.00
37956;DHT22;23776;51.592;7.180;2022-10-30T02:00:10;14.50;1.00
37956;DHT22;23776;51.592;7.180;2022-10-30T02:02:36;14.50;1.00
37956;DHT22;23776;51.592;7.180;2022-10-30T02:05:02;14.50;1.00
37956;DHT22;23776;51.592;7.180;2022-10-30T02:07:28;14.40;1.00
37956;DHT22;23776;51.592;7.180;2022-10-30T02:09:54;14.40;1.00
37956;DHT22;23776;51.592;7.180;2022-10-30T02:12:21;14.40;1.00
37956;DHT22;23776;51.592;7.180;2022-10-30T02:14:50;14.40;1.00
37956;DHT22;23776;51.592;7.180;2022-10-30T02:17:17;14.60;1.00
37956;DHT22;23776;51.592;7.180;2022-10-30T02:19:43;14.30;1.00
37956;DHT22;23776;51.592;7.180;2022-10-30T02:22:09;14.50;1.00
37956;DHT22;23776;51.592;7.180;2022-10-30T02:24:35;14.30;1.00
37956;DHT22;23776;51.592;7.180;2022-10-30T02:27:01;14.20;1.00
37956;DHT22;23776;51.592;7.180;2022-10-30T02:29:27;14.20;1.00
37956;DHT22;23776;51.592;7.180;2022-10-30T02:31:52;14.20;1.00
37956;DHT22;23776;51.592;7.180;2022-10-30T02:34:18;14.10;1.00
37956;DHT22;23776;51.592;7.180;2022-10-30T02:36:44;14.10;1.00
37956;DHT22;23776;51.592;7.180;2022-10-30T02:39:10;14.00;1.00
37956;DHT22;23776;51.592;7.180;2022-10-30T02:41:35;14.00;1.00
37956;DHT22;23776;51.592;7.180;2022-10-30T02:44:01;13.90;1.00
37956;DHT22;23776;51.592;7.180;2022-10-30T02:46:27;13.90;1.00
37956;DHT22;23776;51.592;7.180;2022-10-30T02:48:52;14.30;1.00
37956;DHT22;23776;51.592;7.180;2022-10-30T02:51:18;13.90;1.00
37956;DHT22;23776;51.592;7.180;2022-10-30T02:53:44;13.80;1.00
37956;DHT22;23776;51.592;7.180;2022-10-30T02:56:11;13.80;1.00
37956;DHT22;23776;51.592;7.180;2022-10-30T02:58:37;13.80;1.00
37956;DHT22;23776;51.592;7.180;2022-10-30T03:01:11;13.80;1.00
37956;DHT22;23776;51.592;7.180;2022-10-30T03:03:37;13.70;1.00
37956;DHT22;23776;51.592;7.180;2022-10-30T03:06:05;13.70;1.00
37956;DHT22;23776;51.592;7.180;2022-10-30T03:08:32;13.70;1.00
37956;DHT22;23776;51.592;7.180;2022-10-30T03:11:00;13.70;1.00
37956;DHT22;23776;51.592;7.180;2022-10-30T03:13:27;13.60;1.00
37956;DHT22;23776;51.592;7.180;2022-10-30T03:15:58;13.60;1.00
37956;DHT22;23776;51.592;7.180;2022-10-30T03:18:24;13.60;1.00
37956;DHT22;23776;51.592;7.180;2022-10-30T03:20:55;13.60;1.00
37956;DHT22;23776;51.592;7.180;2022-10-30T03:23:21;13.50;1.00
37956;DHT22;23776;51.592;7.180;2022-10-30T03:25:46;13.50;1.00
37956;DHT22;23776;51.592;7.180;2022-10-30T03:28:12;13.40;1.00
37956;DHT22;23776;51.592;7.180;2022-10-30T03:30:37;13.40;1.00
37956;DHT22;23776;51.592;7.180;2022-10-30T03:33:03;13.40;1.00
37956;DHT22;23776;51.592;7.180;2022-10-30T03:35:28;13.30;1.00
37956;DHT22;23776;51.592;7.180;2022-10-30T03:37:54;13.40;1.00
37956;DHT22;23776;51.592;7.180;2022-10-30T03:40:19;14.10;1.00
37956;DHT22;23776;51.592;7.180;2022-10-30T03:42:45;13.30;1.00
37956;DHT22;23776;51.592;7.180;2022-10-30T03:45:11;13.30;1.00
37956;DHT22;23776;51.592;7.180;2022-10-30T03:47:39;13.30;1.00
37956;DHT22;23776;51.592;7.180;2022-10-30T03:50:05;13.20;1.00
37956;DHT22;23776;51.592;7.180;2022-10-30T03:52:30;13.30;1.00
37956;DHT22;23776;51.592;7.180;2022-10-30T03:54:56;13.30;1.00
37956;DHT22;23776;51.592;7.180;2022-10-30T03:57:21;13.30;1.00
37956;DHT22;23776;51.592;7.180;2022-10-30T03:59:47;13.30;1.00
37956;DHT22;23776;51.592;7.180;2022-10-30T04:02:13;13.30;1.00
37956;DHT22;23776;51.592;7.180;2022-10-30T04:04:38;13.40;1.00
37956;DHT22;23776;51.592;7.180;2022-10-30T04:07:04;13.30;1.00
37956;DHT22;23776;51.592;7.180;2022-10-30T04:09:29;13.30;1.00
37956;DHT22;23776;51.592;7.180;2022-10-30T04:11:55;13.20;1.00
37956;DHT22;23776;51.592;7.180;2022-10-30T04:14:21;13.10;1.00
37956;DHT22;23776;51.592;7.180;2022-10-30T04:16:46;13.10;1.00
37956;DHT22;23776;51.592;7.180;2022-10-30T04:19:12;12.90;1.00
37956;DHT22;23776;51.592;7.180;2022-10-30T04:21:37;13.00;1.00
37956;DHT22;23776;51.592;7.180;2022-10-30T04:24:03;13.00;1.00
37956;DHT22;23776;51.592;7.180;2022-10-30T04:26:29;13.00;1.00
37956;DHT22;23776;51.592;7.180;2022-10-30T04:28:54;13.00;1.00
37956;DHT22;23776;51.592;7.180;2022-10-30T04:31:20;12.90;1.00
37956;DHT22;23776;51.592;7.180;2022-10-30T04:33:45;12.80;1.00
37956;DHT22;23776;51.592;7.180;2022-10-30T04:36:11;12.90;1.00
37956;DHT22;23776;51.592;7.180;2022-10-30T04:38:36;12.90;1.00
37956;DHT22;23776;51.592;7.180;2022-10-30T04:41:02;12.90;1.00
37956;DHT22;23776;51.592;7.180;2022-10-30T04:43:28;12.90;1.00
37956;DHT22;23776;51.592;7.180;2022-10-30T04:45:53;12.80;1.00
37956;DHT22;23776;51.592;7.180;2022-10-30T04:48:19;12.80;1.00
37956;DHT22;23776;51.592;7.180;2022-10-30T04:50:44;12.70;1.00
37956;DHT22;23776;51.592;7.180;2022-10-30T04:53:15;12.70;1.00
37956;DHT22;23776;51.592;7.180;2022-10-30T04:55:41;12.70;1.00
37956;DHT22;23776;51.592;7.180;2022-10-30T04:58:07;12.70;1.00
37956;DHT22;23776;51.592;7.180;2022-10-30T05:00:33;12.70;1.00
37956;DHT22;23776;51.592;7.180;2022-10-30T05:03:00;12.60;1.00
37956;DHT22;23776;51.592;7.180;2022-10-30T05:05:27;12.30;1.00
37956;DHT22;23776;51.592;7.180;2022-10-30T05:07:53;12.50;1.00
37956;DHT22;23776;51.592;7.180;2022-10-30T05:10:19;11.30;1.00
37956;DHT22;23776;51.592;7.180;2022-10-30T05:12:44;12.50;1.00
37956;DHT22;23776;51.592;7.180;2022-10-30T05:15:11;12.50;1.00
37956;DHT22;23776;51.592;7.180;2022-10-30T05:17:37;12.50;1.00
37956;DHT22;23776;51.592;7.180;2022-10-30T05:20:04;12.40;1.00
37956;DHT22;23776;51.592;7.180;2022-10-30T05:22:30;12.40;1.00
37956;DHT22;23776;51.592;7.180;2022-10-30T05:24:56;12.30;1.00
37956;DHT22;23776;51.592;7.180;2022-10-30T05:27:21;13.40;1.00
37956;DHT22;23776;51.592;7.180;2022-10-30T05:29:47;12.30;1.00
37956;DHT22;23776;51.592;7.180;2022-10-30T05:32:12;12.30;1.00
37956;DHT22;23776;51.592;7.180;2022-10-30T05:34:38;12.30;1.00
37956;DHT22;23776;51.592;7.180;2022-10-30T05:37:03;12.20;1.00
37956;DHT22;23776;51.592;7.180;2022-10-30T05:39:29;12.20;1.00
37956;DHT22;23776;51.592;7.180;2022-10-30T05:41:54;12.20;1.00
37956;DHT22;23776;51.592;7.180;2022-10-30T05:44:20;12.10;1.00
37956;DHT22;23776;51.592;7.180;2022-10-30T05:46:46;12.10;1.00
37956;DHT22;23776;51.592;7.180;2022-10-30T05:49:12;12.10;1.00
37956;DHT22;23776;51.592;7.180;2022-10-30T05:51:37;12.10;1.00
37956;DHT22;23776;51.592;7.180;2022-10-30T05:54:03;12.20;1.00
37956;DHT22;23776;51.592;7.180;2022-10-30T05:56:28;12.10;1.00
37956;DHT22;23776;51.592;7.180;2022-10-30T05:58:54;12.00;1.00
37956;DHT22;23776;51.592;7.180;2022-10-30T06:01:20;12.00;1.00
37956;DHT22;23776;51.592;7.180;2022-10-30T06:03:45;12.60;1.00
37956;DHT22;23776;51.592;7.180;2022-10-30T06:06:11;12.00;1.00
37956;DHT22;23776;51.592;7.180;2022-10-30T06:08:37;13.90;1.00
37956;DHT22;23776;51.592;7.180;2022-10-30T06:11:02;11.90;1.00
37956;DHT22;23776;51.592;7.180;2022-10-30T06:13:28;11.90;1.00
37956;DHT22;23776;51.592;7.180;2022-10-30T06:15:54;12.60;1.00
37956;DHT22;23776;51.592;7.180;2022-10-30T06:18:20;11.80;1.00
37956;DHT22;23776;51.592;7.180;2022-10-30T06:20:46;11.90;1.00
37956;DHT22;23776;51.592;7.180;2022-10-30T06:23:12;11.80;1.00
37956;DHT22;23776;51.592;7.180;2022-10-30T06:25:38;11.90;1.00
37956;DHT22;23776;51.592;7.180;2022-10-30T06:28:04;11.90;1.00
37956;DHT22;23776;51.592;7.180;2022-10-30T06:30:29;11.80;1.00
37956;DHT22;23776;51.592;7.180;2022-10-30T06:33:02;11.80;1.00
37956;DHT22;23776;51.592;7.180;2022-10-30T06:35:29;11.80;1.00
37956;DHT22;23776;51.592;7.180;2022-10-30T06:37:55;11.90;1.00
37956;DHT22;23776;51.592;7.180;2022-10-30T06:40:23;11.80;1.00
37956;DHT22;23776;51.592;7.180;2022-10-30T06:42:50;11.80;1.00
37956;DHT22;23776;51.592;7.180;2022-10-30T06:45:17;11.80;1.00
37956;DHT22;23776;51.592;7.180;2022-10-30T06:47:44;11.80;1.00
37956;DHT22;23776;51.592;7.180;2022-10-30T06:50:13;11.80;1.00
37956;DHT22;23776;51.592;7.180;2022-10-30T06:52:40;11.80;1.00
37956;DHT22;23776;51.592;7.180;2022-10-30T06:55:06;11.70;1.00
37956;DHT22;23776;51.592;7.180;2022-10-30T06:57:32;11.80;1.00
37956;DHT22;23776;51.592;7.180;2022-10-30T06:59:57;11.80;1.00
37956;DHT22;23776;51.592;7.180;2022-10-30T07:02:23;11.80;1.00
37956;DHT22;23776;51.592;7.180;2022-10-30T07:04:49;12.10;1.00
37956;DHT22;23776;51.592;7.180;2022-10-30T07:07:15;11.90;1.00
37956;DHT22;23776;51.592;7.180;2022-10-30T07:09:41;11.90;1.00
37956;DHT22;23776;51.592;7.180;2022-10-30T07:12:07;11.90;1.00
37956;DHT22;23776;51.592;7.180;2022-10-30T07:14:33;11.90;1.00
37956;DHT22;23776;51.592;7.180;2022-10-30T07:16:59;12.00;1.00
37956;DHT22;23776;51.592;7.180;2022-10-30T07:19:25;12.10;1.00
37956;DHT22;23776;51.592;7.180;2022-10-30T07:21:50;12.10;1.00
37956;DHT22;23776;51.592;7.180;2022-10-30T07:24:16;12.10;1.00
37956;DHT22;23776;51.592;7.180;2022-10-30T07:26:42;12.10;1.00
37956;DHT22;23776;51.592;7.180;2022-10-30T07:29:07;12.10;1.00
37956;DHT22;23776;51.592;7.180;2022-10-30T07:31:33;12.10;1.00
37956;DHT22;23776;51.592;7.180;2022-10-30T07:33:58;12.30;1.00
37956;DHT22;23776;51.592;7.180;2022-10-30T07:36:24;12.30;1.00
37956;DHT22;23776;51.592;7.180;2022-10-30T07:38:51;12.50;1.00
37956;DHT22;23776;51.592;7.180;2022-10-30T07:41:17;12.50;1.00
37956;DHT22;23776;51.592;7.180;2022-10-30T07:43:44;12.60;1.00
37956;DHT22;23776;51.592;7.180;2022-10-30T07:46:10;12.70;1.00
37956;DHT22;23776;51.592;7.180;2022-10-30T07:48:36;13.20;1.00
37956;DHT22;23776;51.592;7.180;2022-10-30T07:51:02;12.90;1.00
37956;DHT22;23776;51.592;7.180;2022-10-30T07:53:28;13.00;1.00
37956;DHT22;23776;51.592;7.180;2022-10-30T07:55:54;13.50;1.00
37956;DHT22;23776;51.592;7.180;2022-10-30T07:58:20;13.20;1.00
37956;DHT22;23776;51.592;7.180;2022-10-30T08:00:45;13.20;1.00
37956;DHT22;23776;51.592;7.180;2022-10-30T08:03:12;13.30;1.00
37956;DHT22;23776;51.592;7.180;2022-10-30T08:05:38;13.40;1.00
37956;DHT22;23776;51.592;7.180;2022-10-30T08:08:04;13.50;1.00
37956;DHT22;23776;51.592;7.180;2022-10-30T08:10:30;13.70;1.00
37956;DHT22;23776;51.592;7.180;2022-10-30T08:12:55;13.80;1.00
37956;DHT22;23776;51.592;7.180;2022-10-30T08:15:21;14.00;1.00
37956;DHT22;23776;51.592;7.180;2022-10-30T08:17:48;14.00;1.00
37956;DHT22;23776;51.592;7.180;2022-10-30T08:20:16;14.20;1.00
37956;DHT22;23776;51.592;7.180;2022-10-30T08:25:09;14.40;1.00
37956;DHT22;23776;51.592;7.180;2022-10-30T08:27:35;14.60;1.00
37956;DHT22;23776;51.592;7.180;2022-10-30T08:30:00;14.70;1.00
37956;DHT22;23776;51.592;7.180;2022-10-30T08:32:26;14.90;1.00
37956;DHT22;23776;51.592;7.180;2022-10-30T08:34:51;16.40;1.00
37956;DHT22;23776;51.592;7.180;2022-10-30T08:37:17;15.20;1.00
37956;DHT22;23776;51.592;7.180;2022-10-30T08:39:43;15.30;1.00
37956;DHT22;23776;51.592;7.180;2022-10-30T08:42:08;15.50;1.00
37956;DHT22;23776;51.592;7.180;2022-10-30T08:44:34;15.50;1.00
37956;DHT22;23776;51.592;7.180;2022-10-30T08:47:00;16.10;1.00
37956;DHT22;23776;51.592;7.180;2022-10-30T08:49:25;15.90;1.00
37956;DHT22;23776;51.592;7.180;2022-10-30T08:51:51;16.00;1.00
37956;DHT22;23776;51.592;7.180;2022-10-30T08:54:16;16.10;99.90
37956;DHT22;23776;51.592;7.180;2022-10-30T08:56:42;16.30;99.90
37956;DHT22;23776;51.592;7.180;2022-10-30T08:59:07;16.40;1.00
37956;DHT22;23776;51.592;7.180;2022-10-30T09:01:33;16.60;1.00
37956;DHT22;23776;51.592;7.180;2022-10-30T09:04:00;16.70;1.00
37956;DHT22;23776;51.592;7.180;2022-10-30T09:06:26;16.80;99.90
37956;DHT22;23776;51.592;7.180;2022-10-30T09:08:52;17.00;99.90
37956;DHT22;23776;51.592;7.180;2022-10-30T09:11:17;17.30;2.70
37956;DHT22;23776;51.592;7.180;2022-10-30T09:13:43;17.20;1.00
37956;DHT22;23776;51.592;7.180;2022-10-30T09:16:08;17.40;99.90
37956;DHT22;23776;51.592;7.180;2022-10-30T09:18:34;17.40;99.90
37956;DHT22;23776;51.592;7.180;2022-10-30T09:20:59;17.60;99.90
37956;DHT22;23776;51.592;7.180;2022-10-30T09:23:25;17.80;22.00
37956;DHT22;23776;51.592;7.180;2022-10-30T09:25:50;17.80;30.00
37956;DHT22;23776;51.592;7.180;2022-10-30T09:28:16;18.00;1.00
37956;DHT22;23776;51.592;7.180;2022-10-30T09:30:42;18.10;1.00
37956;DHT22;23776;51.592;7.180;2022-10-30T09:33:07;16.70;99.90
37956;DHT22;23776;51.592;7.180;2022-10-30T09:35:33;18.60;99.90
37956;DHT22;23776;51.592;7.180;2022-10-30T09:38:00;18.40;99.10
37956;DHT22;23776;51.592;7.180;2022-10-30T09:43:31;18.70;1.00
37956;DHT22;23776;51.592;7.180;2022-10-30T09:49:27;19.00;99.90
37956;DHT22;23776;51.592;7.180;2022-10-30T09:52:18;19.10;99.90
37956;DHT22;23776;51.592;7.180;2022-10-30T09:57:56;19.40;99.90
37956;DHT22;23776;51.592;7.180;2022-10-30T10:00:35;19.60;99.90
37956;DHT22;23776;51.592;7.180;2022-10-30T10:03:16;19.70;99.90
37956;DHT22;23776;51.592;7.180;2022-10-30T10:05:46;19.90;68.20
37956;DHT22;23776;51.592;7.180;2022-10-30T10:08:28;20.00;25.00
37956;DHT22;23776;51.592;7.180;2022-10-30T10:11:09;20.20;12.00
37956;DHT22;23776;51.592;7.180;2022-10-30T10:13:56;20.30;1.00
37956;DHT22;23776;51.592;7.180;2022-10-30T10:16:27;20.40;99.90
37956;DHT22;23776;51.592;7.180;2022-10-30T10:19:03;20.60;99.90
37956;DHT22;23776;51.592;7.180;2022-10-30T10:21:35;20.70;99.90
37956;DHT22;23776;51.592;7.180;2022-10-30T10:24:22;20.80;99.90
37956;DHT22;23776;51.592;7.180;2022-10-30T10:32:26;21.20;99.90
37956;DHT22;23776;51.592;7.180;2022-10-30T10:37:55;21.50;99.90
37956;DHT22;23776;51.592;7.180;2022-10-30T10:50:56;22.40;1.00
37956;DHT22;23776;51.592;7.180;2022-10-30T10:53:45;24.20;1.00
37956;DHT22;23776;51.592;7.180;2022-10-30T10:56:15;24.20;1.00
37956;DHT22;23776;51.592;7.180;2022-10-30T10:58:50;25.10;99.90
37956;DHT22;23776;51.592;7.180;2022-10-30T11:01:21;25.80;99.90
37956;DHT22;23776;51.592;7.180;2022-10-30T11:03:58;26.30;99.90
37956;DHT22;23776;51.592;7.180;2022-10-30T11:06:31;26.70;99.90
37956;DHT22;23776;51.592;7.180;2022-10-30T11:09:19;27.00;99.90
37956;DHT22;23776;51.592;7.180;2022-10-30T11:11:46;27.60;99.90
37956;DHT22;23776;51.592;7.180;2022-10-30T11:14:21;28.00;99.90
37956;DHT22;23776;51.592;7.180;2022-10-30T11:19:23;28.70;99.90
37956;DHT22;23776;51.592;7.180;2022-10-30T11:21:51;28.70;99.90
37956;DHT22;23776;51.592;7.180;2022-10-30T11:24:31;28.60;99.90
37956;DHT22;23776;51.592;7.180;2022-10-30T11:27:43;29.20;99.90
37956;DHT22;23776;51.592;7.180;2022-10-30T11:29:59;30.00;99.90
37956;DHT22;23776;51.592;7.180;2022-10-30T11:32:27;30.60;99.90
37956;DHT22;23776;51.592;7.180;2022-10-30T11:37:37;30.60;99.90
37956;DHT22;23776;51.592;7.180;2022-10-30T11:42:38;29.50;99.90
37956;DHT22;23776;51.592;7.180;2022-10-30T11:45:22;29.30;99.90
37956;DHT22;23776;51.592;7.180;2022-10-30T11:47:49;29.30;99.90
37956;DHT22;23776;51.592;7.180;2022-10-30T11:50:16;29.30;99.90
37956;DHT22;23776;51.592;7.180;2022-10-30T11:52:43;29.30;99.90
37956;DHT22;23776;51.592;7.180;2022-10-30T11:55:23;29.10;99.90
37956;DHT22;23776;51.592;7.180;2022-10-30T11:57:51;29.30;99.90
37956;DHT22;23776;51.592;7.180;2022-10-30T12:00:24;29.00;99.90
37956;DHT22;23776;51.592;7.180;2022-10-30T12:02:56;29.10;99.90
37956;DHT22;23776;51.592;7.180;2022-10-30T12:08:10;28.90;99.90
37956;DHT22;23776;51.592;7.180;2022-10-30T12:13:18;28.90;99.90
37956;DHT22;23776;51.592;7.180;2022-10-30T12:15:47;28.50;99.90
37956;DHT22;23776;51.592;7.180;2022-10-30T12:18:21;28.20;99.90
37956;DHT22;23776;51.592;7.180;2022-10-30T12:20:52;27.60;99.90
37956;DHT22;23776;51.592;7.180;2022-10-30T12:23:20;27.50;99.90
37956;DHT22;23776;51.592;7.180;2022-10-30T12:25:51;27.10;99.90
37956;DHT22;23776;51.592;7.180;2022-10-30T12:28:20;26.90;99.90
37956;DHT22;23776;51.592;7.180;2022-10-30T12:31:02;26.70;99.90
37956;DHT22;23776;51.592;7.180;2022-10-30T12:36:33;26.80;99.90
37956;DHT22;23776;51.592;7.180;2022-10-30T12:41:42;26.60;99.90
37956;DHT22;23776;51.592;7.180;2022-10-30T12:44:17;26.40;99.90
37956;DHT22;23776;51.592;7.180;2022-10-30T12:46:47;26.10;99.90
37956;DHT22;23776;51.592;7.180;2022-10-30T12:57:21;25.10;99.90
37956;DHT22;23776;51.592;7.180;2022-10-30T13:00:05;25.00;99.90
37956;DHT22;23776;51.592;7.180;2022-10-30T13:02:55;24.80;99.90
37956;DHT22;23776;51.592;7.180;2022-10-30T13:05:32;24.70;99.90
37956;DHT22;23776;51.592;7.180;2022-10-30T13:10:45;24.70;99.90
37956;DHT22;23776;51.592;7.180;2022-10-30T13:15:53;24.90;99.90
37956;DHT22;23776;51.592;7.180;2022-10-30T13:18:25;24.90;99.90
37956;DHT22;23776;51.592;7.180;2022-10-30T13:21:11;24.80;99.90
37956;DHT22;23776;51.592;7.180;2022-10-30T13:26:36;24.70;99.90
37956;DHT22;23776;51.592;7.180;2022-10-30T13:29:18;24.60;99.90
37956;DHT22;23776;51.592;7.180;2022-10-30T13:37:55;24.20;99.90
37956;DHT22;23776;51.592;7.180;2022-10-30T13:40:43;24.20;99.90
37956;DHT22;23776;51.592;7.180;2022-10-30T13:43:29;24.10;99.90
37956;DHT22;23776;51.592;7.180;2022-10-30T13:52:14;24.00;99.90
37956;DHT22;23776;51.592;7.180;2022-10-30T13:54:56;24.00;99.90
37956;DHT22;23776;51.592;7.180;2022-10-30T14:00:20;23.90;99.90
37956;DHT22;23776;51.592;7.180;2022-10-30T14:03:05;23.90;99.90
37956;DHT22;23776;51.592;7.180;2022-10-30T14:10:53;23.90;99.90
37956;DHT22;23776;51.592;7.180;2022-10-30T14:15:58;22.90;99.90
37956;DHT22;23776;51.592;7.180;2022-10-30T14:21:57;23.60;99.90
37956;DHT22;23776;51.592;7.180;2022-10-30T14:24:33;23.60;99.90
37956;DHT22;23776;51.592;7.180;2022-10-30T14:34:44;23.40;99.90
37956;DHT22;23776;51.592;7.180;2022-10-30T14:37:11;23.30;99.90
37956;DHT22;23776;51.592;7.180;2022-10-30T14:47:58;23.20;99.90
37956;DHT22;23776;51.592;7.180;2022-10-30T14:50:51;23.00;99.90
37956;DHT22;23776;51.592;7.180;2022-10-30T14:58:33;22.70;99.90
37956;DHT22;23776;51.592;7.180;2022-10-30T15:07:04;22.70;99.90
37956;DHT22;23776;51.592;7.180;2022-10-30T15:15:13;22.50;99.90
37956;DHT22;23776;51.592;7.180;2022-10-30T15:17:44;22.40;99.90
37956;DHT22;23776;51.592;7.180;2022-10-30T15:20:25;22.30;99.90
37956;DHT22;23776;51.592;7.180;2022-10-30T15:22:58;22.20;99.90
37956;DHT22;23776;51.592;7.180;2022-10-30T15:25:32;22.00;99.90
37956;DHT22;23776;51.592;7.180;2022-10-30T15:27:59;21.90;99.90
37956;DHT22;23776;51.592;7.180;2022-10-30T15:30:26;21.80;99.90
37956;DHT22;23776;51.592;7.180;2022-10-30T15:32:52;21.70;1.00
37956;DHT22;23776;51.592;7.180;2022-10-30T15:35:25;21.60;1.00
37956;DHT22;23776;51.592;7.180;2022-10-30T15:37:55;21.50;1.00
37956;DHT22;23776;51.592;7.180;2022-10-30T15:40:21;21.40;1.00
37956;DHT22;23776;51.592;7.180;2022-10-30T15:42:47;21.20;1.00
37956;DHT22;23776;51.592;7.180;2022-10-30T15:45:27;21.00;1.00
37956;DHT22;23776;51.592;7.180;2022-10-30T15:48:24;20.90;1.00
37956;DHT22;23776;51.592;7.180;2022-10-30T15:51:01;20.70;70.10
37956;DHT22;23776;51.592;7.180;2022-10-30T15:53:43;21.70;99.90
37956;DHT22;23776;51.592;7.180;2022-10-30T15:56:26;20.40;99.90
37956;DHT22;23776;51.592;7.180;2022-10-30T15:58:57;20.40;99.90
37956;DHT22;23776;51.592;7.180;2022-10-30T16:01:31;20.10;99.90
37956;DHT22;23776;51.592;7.180;2022-10-30T16:03:57;20.00;99.90
37956;DHT22;23776;51.592;7.180;2022-10-30T16:06:30;19.80;99.90
37956;DHT22;23776;51.592;7.180;2022-10-30T16:08:57;19.70;99.90
37956;DHT22;23776;51.592;7.180;2022-10-30T16:11:23;19.60;1.00
37956;DHT22;23776;51.592;7.180;2022-10-30T16:13:49;19.50;1.00
37956;DHT22;23776;51.592;7.180;2022-10-30T16:16:26;19.40;99.90
37956;DHT22;23776;51.592;7.180;2022-10-30T16:18:53;19.30;99.90
37956;DHT22;23776;51.592;7.180;2022-10-30T16:21:22;19.10;99.90
37956;DHT22;23776;51.592;7.180;2022-10-30T16:23:52;19.00;1.00
37956;DHT22;23776;51.592;7.180;2022-10-30T16:26:34;18.90;99.90
37956;DHT22;23776;51.592;7.180;2022-10-30T16:29:09;18.80;1.00
37956;DHT22;23776;51.592;7.180;2022-10-30T16:31:36;18.70;83.70
37956;DHT22;23776;51.592;7.180;2022-10-30T16:34:03;17.70;99.90
37956;DHT22;23776;51.592;7.180;2022-10-30T16:36:29;18.40;99.90
37956;DHT22;23776;51.592;7.180;2022-10-30T16:38:55;18.40;99.90
37956;DHT22;23776;51.592;7.180;2022-10-30T16:41:30;18.30;99.90
37956;DHT22;23776;51.592;7.180;2022-10-30T16:44:28;18.20;1.00
37956;DHT22;23776;51.592;7.180;2022-10-30T16:47:06;18.10;99.90
37956;DHT22;23776;51.592;7.180;2022-10-30T16:49:36;17.90;1.00
37956;DHT22;23776;51.592;7.180;2022-10-30T16:52:04;17.90;1.00
37956;DHT22;23776;51.592;7.180;2022-10-30T16:54:34;18.40;1.00
37956;DHT22;23776;51.592;7.180;2022-10-30T16:57:02;17.70;3.90
37956;DHT22;23776;51.592;7.180;2022-10-30T16:59:36;17.60;99.90
37956;DHT22;23776;51.592;7.180;2022-10-30T17:02:11;17.50;97.10
37956;DHT22;23776;51.592;7.180;2022-10-30T17:04:41;17.50;99.90
37956;DHT22;23776;51.592;7.180;2022-10-30T17:09:44;17.20;99.90
37956;DHT22;23776;51.592;7.180;2022-10-30T17:17:33;17.00;1.00
37956;DHT22;23776;51.592;7.180;2022-10-30T17:22:46;16.80;99.90
37956;DHT22;23776;51.592;7.180;2022-10-30T17:25:31;16.80;99.90
37956;DHT22;23776;51.592;7.180;2022-10-30T17:27:59;16.80;1.00
37956;DHT22;23776;51.592;7.180;2022-10-30T17:30:39;16.70;1.00
37956;DHT22;23776;51.592;7.180;2022-10-30T17:33:26;16.70;1.00
37956;DHT22;23776;51.592;7.180;2022-10-30T17:35:54;16.60;1.00
37956;DHT22;23776;51.592;7.180;2022-10-30T17:38:20;16.50;1.00
37956;DHT22;23776;51.592;7.180;2022-10-30T17:40:46;16.50;99.80
37956;DHT22;23776;51.592;7.180;2022-10-30T17:43:12;16.40;97.20
37956;DHT22;23776;51.592;7.180;2022-10-30T17:45:42;16.40;98.10
37956;DHT22;23776;51.592;7.180;2022-10-30T17:48:16;16.30;99.90
37956;DHT22;23776;51.592;7.180;2022-10-30T17:50:42;16.60;99.90
37956;DHT22;23776;51.592;7.180;2022-10-30T17:53:16;16.30;99.90
37956;DHT22;23776;51.592;7.180;2022-10-30T17:55:44;16.20;99.90
37956;DHT22;23776;51.592;7.180;2022-10-30T17:58:10;16.10;99.90
37956;DHT22;23776;51.592;7.180;2022-10-30T18:00:36;16.50;99.90
37956;DHT22;23776;51.592;7.180;2022-10-30T18:03:02;16.20;99.90
37956;DHT22;23776;51.592;7.180;2022-10-30T18:05:32;16.20;99.90
37956;DHT22;23776;51.592;7.180;2022-10-30T18:07:59;16.10;99.90
37956;DHT22;23776;51.592;7.180;2022-10-30T18:10:24;16.00;99.90
37956;DHT22;23776;51.592;7.180;2022-10-30T18:12:50;16.00;99.90
37956;DHT22;23776;51.592;7.180;2022-10-30T18:15:31;15.90;99.90
37956;DHT22;23776;51.592;7.180;2022-10-30T18:17:58;15.90;99.90
37956;DHT22;23776;51.592;7.180;2022-10-30T18:20:24;15.80;99.90
37956;DHT22;23776;51.592;7.180;2022-10-30T18:22:50;15.90;99.90
37956;DHT22;23776;51.592;7.180;2022-10-30T18:25:22;15.90;99.90
37956;DHT22;23776;51.592;7.180;2022-10-30T18:27:48;15.90;99.90